Time;durP1;ratioP1;P1;durP2;ratioP2;P2;SDS_P1;SDS_P2;PMS_P1;PMS_P2;Temp;Humidity;BMP_temperature;BMP_pressure;BME280_temperature;BME280_humidity;BME280_pressure;Samples;Min_cycle;Max_cycle;Signal;HPM_P1;HPM_P2
2022/02/28 00:01:03;;;;;;;20.23;8.70;;;1.20;99.70;;;;;;5073701;28;20536;-56
2022/02/28 00:03:31;;;;;;;16.60;8.20;;;1.30;99.70;;;;;;5073611;28;20447;-56
2022/02/28 00:05:58;;;;;;;16.77;8.87;;;1.10;99.70;;;;;;5073186;28;20467;-56
2022/02/28 00:08:25;;;;;;;18.87;8.40;;;1.10;99.70;;;;;;5073344;28;20453;-57
2022/02/28 00:10:51;;;;;;;22.73;8.83;;;1.00;99.70;;;;;;5073614;28;20648;-61
2022/02/28 00:13:18;;;;;;;20.93;8.90;;;0.90;99.70;;;;;;5072128;28;20454;-57
2022/02/28 00:15:46;;;;;;;21.03;8.80;;;0.90;99.70;;;;;;5073001;28;20853;-60
2022/02/28 00:18:13;;;;;;;25.53;9.53;;;1.00;99.70;;;;;;5073120;28;20831;-58
2022/02/28 00:20:40;;;;;;;19.33;9.30;;;1.00;99.70;;;;;;5073461;28;20490;-61
2022/02/28 00:23:08;;;;;;;19.03;9.00;;;1.10;99.70;;;;;;5073303;28;20470;-61
2022/02/28 00:25:34;;;;;;;19.73;8.60;;;1.10;99.70;;;;;;5072879;28;20466;-63
2022/02/28 00:28:03;;;;;;;21.00;8.87;;;1.10;99.70;;;;;;5072831;28;20447;-61
2022/02/28 00:30:29;;;;;;;21.73;8.83;;;1.00;99.70;;;;;;5073200;28;20446;-59
2022/02/28 00:32:57;;;;;;;22.90;9.40;;;0.80;99.70;;;;;;5072382;28;20446;-61
2022/02/28 00:35:24;;;;;;;21.63;9.30;;;0.80;99.70;;;;;;5072305;28;20462;-61
2022/02/28 00:37:51;;;;;;;21.47;8.80;;;0.70;99.70;;;;;;5072914;28;21004;-59
2022/02/28 00:40:18;;;;;;;24.30;9.20;;;0.70;99.70;;;;;;5072806;28;20817;-63
2022/02/28 00:42:44;;;;;;;20.97;9.13;;;0.70;99.70;;;;;;5073084;28;20482;-59
2022/02/28 00:45:11;;;;;;;21.90;9.30;;;0.50;99.70;;;;;;5072379;28;20463;-63
2022/02/28 00:47:38;;;;;;;19.20;9.00;;;0.40;99.70;;;;;;5072591;28;20447;-59
2022/02/28 00:50:08;;;;;;;23.73;9.30;;;0.30;99.70;;;;;;5072713;28;20472;-56
2022/02/28 00:52:36;;;;;;;17.77;8.30;;;0.20;99.70;;;;;;5072883;28;20450;-56
2022/02/28 00:55:03;;;;;;;18.37;7.97;;;0.20;99.70;;;;;;5072275;28;20553;-57
2022/02/28 00:57:30;;;;;;;17.47;8.03;;;0.20;99.70;;;;;;5072650;28;20439;-59
2022/02/28 00:59:57;;;;;;;22.57;9.50;;;0.10;99.70;;;;;;5072354;28;20573;-57
2022/02/28 01:02:24;;;;;;;18.67;8.77;;;0.00;99.70;;;;;;5072475;28;20474;-59
2022/02/28 01:04:51;;;;;;;19.27;8.90;;;0.00;99.70;;;;;;5072192;28;21163;-58
2022/02/28 01:07:19;;;;;;;25.27;9.77;;;-0.10;99.70;;;;;;5072384;28;20453;-58
2022/02/28 01:09:46;;;;;;;21.77;9.13;;;0.00;99.70;;;;;;5072246;28;20450;-59
2022/02/28 01:12:13;;;;;;;24.53;9.40;;;0.00;99.70;;;;;;5072231;28;20439;-61
2022/02/28 01:14:40;;;;;;;21.43;9.40;;;-0.10;99.70;;;;;;5071684;28;20501;-59
2022/02/28 01:17:07;;;;;;;25.93;10.47;;;-0.30;99.70;;;;;;5071801;28;20803;-60
2022/02/28 01:19:34;;;;;;;26.97;10.50;;;-0.20;99.70;;;;;;5071914;28;20533;-57
2022/02/28 01:22:02;;;;;;;25.23;9.70;;;-0.10;99.70;;;;;;5072061;28;20540;-57
2022/02/28 01:24:30;;;;;;;26.90;12.10;;;-0.10;99.70;;;;;;5071918;28;20443;-60
2022/02/28 01:26:57;;;;;;;26.23;10.70;;;-0.10;99.70;;;;;;5071718;28;20447;-59
2022/02/28 01:29:23;;;;;;;23.50;9.67;;;-0.20;99.70;;;;;;5071744;28;20450;-61
2022/02/28 01:31:50;;;;;;;27.20;10.03;;;0.20;99.70;;;;;;5071843;28;20446;-60
2022/02/28 01:34:17;;;;;;;23.43;10.00;;;0.90;99.70;;;;;;5071198;28;20451;-62
2022/02/28 01:36:44;;;;;;;25.47;10.00;;;0.70;99.70;;;;;;5071594;28;20952;-59
2022/02/28 01:39:11;;;;;;;23.70;10.10;;;0.50;99.70;;;;;;5071393;28;20453;-61
2022/02/28 01:41:39;;;;;;;25.60;10.03;;;0.20;99.70;;;;;;5071531;28;20486;-60
2022/02/28 01:44:06;;;;;;;26.03;10.30;;;0.90;99.70;;;;;;5070736;28;20454;-60
2022/02/28 01:46:34;;;;;;;24.53;9.43;;;0.40;99.70;;;;;;5071277;28;21005;-61
2022/02/28 01:49:01;;;;;;;26.30;9.57;;;0.90;99.70;;;;;;5071263;28;20600;-61
2022/02/28 01:51:28;;;;;;;25.40;9.77;;;0.90;99.70;;;;;;5071562;28;20443;-59
2022/02/28 01:53:55;;;;;;;25.60;9.20;;;0.50;99.70;;;;;;5071402;28;20832;-61
2022/02/28 01:56:22;;;;;;;23.10;9.90;;;1.00;99.70;;;;;;5071048;28;20516;-61
2022/02/28 01:58:50;;;;;;;21.10;9.50;;;0.80;99.70;;;;;;5071121;28;20439;-62
2022/02/28 02:01:17;;;;;;;20.73;9.43;;;0.50;99.70;;;;;;5071073;28;20854;-61
2022/02/28 02:03:43;;;;;;;20.67;9.50;;;0.30;99.70;;;;;;5071297;28;20442;-60
2022/02/28 02:06:11;;;;;;;26.50;10.30;;;0.20;99.70;;;;;;5070834;28;20459;-59
2022/02/28 02:08:39;;;;;;;19.50;9.00;;;0.00;99.70;;;;;;5070927;28;20810;-61
2022/02/28 02:11:06;;;;;;;23.03;9.07;;;0.10;99.70;;;;;;5071098;28;20443;-60
2022/02/28 02:13:33;;;;;;;24.67;10.03;;;0.00;99.70;;;;;;5070736;28;20942;-58
2022/02/28 02:16:02;;;;;;;25.17;10.07;;;-0.20;99.70;;;;;;5070532;28;20485;-62
2022/02/28 02:18:29;;;;;;;23.00;9.80;;;-0.20;99.70;;;;;;5071023;28;20942;-60
2022/02/28 02:20:57;;;;;;;25.17;9.70;;;-0.30;99.70;;;;;;5071072;28;20446;-59
2022/02/28 02:23:24;;;;;;;26.60;8.97;;;-0.30;99.70;;;;;;5071254;28;20813;-61
2022/02/28 02:25:51;;;;;;;22.03;9.30;;;-0.10;99.70;;;;;;5070686;28;20485;-59
2022/02/28 02:28:20;;;;;;;22.03;10.20;;;-0.10;99.70;;;;;;5070753;28;20958;-59
2022/02/28 02:30:49;;;;;;;22.83;10.10;;;-0.20;99.70;;;;;;5070839;28;20949;-60
2022/02/28 02:33:17;;;;;;;19.80;9.27;;;-0.20;99.70;;;;;;5070839;28;20442;-58
2022/02/28 02:35:47;;;;;;;21.33;8.90;;;-0.30;99.70;;;;;;5070509;28;20474;-57
2022/02/28 02:38:15;;;;;;;21.60;9.27;;;0.00;99.70;;;;;;5070633;28;20504;-58
2022/02/28 02:40:42;;;;;;;22.93;9.90;;;-0.10;99.70;;;;;;5070811;28;20438;-59
2022/02/28 02:43:09;;;;;;;23.10;10.07;;;-0.20;99.70;;;;;;5070801;28;20649;-58
2022/02/28 02:45:36;;;;;;;20.20;9.67;;;-0.30;99.70;;;;;;5070835;28;20488;-60
2022/02/28 02:48:11;;;;;;;29.20;11.80;;;-0.30;99.70;;;;;;5070686;28;20442;-61
2022/02/28 02:50:38;;;;;;;21.47;9.30;;;-0.30;99.70;;;;;;5070643;28;20442;-61
2022/02/28 02:53:05;;;;;;;25.97;11.00;;;-0.40;99.70;;;;;;5070871;28;20862;-61
2022/02/28 02:55:33;;;;;;;24.20;9.90;;;-0.50;99.70;;;;;;5071239;28;20544;-61
2022/02/28 02:58:00;;;;;;;22.77;9.43;;;-0.50;99.70;;;;;;5074690;28;20842;-61
2022/02/28 03:00:27;;;;;;;24.13;9.53;;;-0.40;99.70;;;;;;5074873;28;20866;-61
2022/02/28 03:02:54;;;;;;;23.20;8.60;;;-0.50;99.70;;;;;;5074627;28;20478;-60
2022/02/28 03:05:21;;;;;;;23.00;9.40;;;-0.60;99.70;;;;;;5074161;28;21040;-63
2022/02/28 03:07:47;;;;;;;25.93;9.70;;;-0.50;99.70;;;;;;5074608;28;20503;-62
2022/02/28 03:10:14;;;;;;;19.20;9.20;;;-0.50;99.70;;;;;;5074595;28;20438;-61
2022/02/28 03:12:42;;;;;;;22.17;9.20;;;-0.60;99.70;;;;;;5074309;28;20441;-62
2022/02/28 03:15:10;;;;;;;23.07;10.47;;;-0.60;99.70;;;;;;5073945;28;20474;-61
2022/02/28 03:17:36;;;;;;;20.87;9.20;;;-0.70;99.70;;;;;;5074198;28;20447;-61
2022/02/28 03:20:04;;;;;;;26.83;10.93;;;-0.60;99.70;;;;;;5074412;28;20442;-62
2022/02/28 03:22:30;;;;;;;23.27;10.50;;;-0.70;99.70;;;;;;5074180;28;20485;-61
2022/02/28 03:24:57;;;;;;;22.30;9.30;;;-0.70;99.70;;;;;;5073917;28;20528;-62
2022/02/28 03:27:24;;;;;;;22.70;9.63;;;-0.70;99.70;;;;;;5074156;28;20443;-62
2022/02/28 03:29:52;;;;;;;21.60;9.80;;;-0.70;99.70;;;;;;5074174;28;20450;-61
2022/02/28 03:32:19;;;;;;;23.13;9.33;;;-0.70;99.70;;;;;;5074068;28;20827;-61
2022/02/28 03:34:45;;;;;;;25.30;9.13;;;-0.60;99.70;;;;;;5073296;28;20985;-60
2022/02/28 03:37:12;;;;;;;22.53;9.40;;;-0.70;99.70;;;;;;5073843;28;20454;-60
2022/02/28 03:39:39;;;;;;;22.00;9.67;;;-0.80;99.70;;;;;;5073884;28;20941;-59
2022/02/28 03:42:06;;;;;;;20.27;8.83;;;-0.80;99.70;;;;;;5073727;28;20482;-59
2022/02/28 03:44:33;;;;;;;19.67;9.40;;;-0.80;99.70;;;;;;5073784;28;20446;-61
2022/02/28 03:47:01;;;;;;;24.77;9.93;;;-0.80;99.70;;;;;;5073484;28;20447;-59
2022/02/28 03:49:28;;;;;;;21.23;8.93;;;-0.60;99.70;;;;;;5073563;28;20871;-58
2022/02/28 03:51:54;;;;;;;21.90;10.30;;;-0.70;99.70;;;;;;5073523;28;20442;-58
2022/02/28 03:54:21;;;;;;;28.97;10.67;;;-0.70;99.70;;;;;;5073564;28;20449;-59
2022/02/28 03:56:48;;;;;;;25.43;10.03;;;-0.80;99.70;;;;;;5073355;28;20497;-59
2022/02/28 03:59:15;;;;;;;30.10;9.73;;;-0.80;99.70;;;;;;5073448;28;20938;-56
2022/02/28 04:01:41;;;;;;;20.93;9.50;;;-0.90;99.70;;;;;;5073457;28;20450;-56
2022/02/28 04:04:10;;;;;;;21.63;9.20;;;-0.90;99.70;;;;;;5073512;28;20981;-58
2022/02/28 04:06:36;;;;;;;22.07;9.30;;;-0.90;99.70;;;;;;5072556;28;20467;-58
2022/02/28 04:09:05;;;;;;;20.17;9.37;;;-0.80;99.70;;;;;;5072828;28;20486;-56
2022/02/28 04:11:33;;;;;;;24.40;10.13;;;-0.90;99.70;;;;;;5073371;28;20934;-59
2022/02/28 04:14:00;;;;;;;23.13;9.60;;;-0.80;99.70;;;;;;5072844;28;20443;-57
2022/02/28 04:16:27;;;;;;;25.43;9.53;;;-0.90;99.70;;;;;;5072828;28;20479;-59
2022/02/28 04:18:53;;;;;;;24.70;10.43;;;-1.00;99.70;;;;;;5072968;28;20455;-61
2022/02/28 04:21:21;;;;;;;22.90;9.97;;;-1.00;99.70;;;;;;5073166;28;20453;-60
2022/02/28 04:23:51;;;;;;;26.43;9.30;;;-0.90;99.70;;;;;;5073013;28;20512;-57
2022/02/28 04:26:18;;;;;;;30.00;9.97;;;-1.00;99.70;;;;;;5072710;28;21027;-61
2022/02/28 04:28:44;;;;;;;23.27;9.67;;;-1.00;99.70;;;;;;5072613;28;20449;-60
2022/02/28 04:31:11;;;;;;;25.00;10.30;;;-0.90;99.70;;;;;;5073137;28;20501;-59
2022/02/28 04:33:38;;;;;;;25.17;9.90;;;-0.90;99.70;;;;;;5072068;28;20447;-62
2022/02/28 04:36:05;;;;;;;22.60;9.20;;;-0.90;99.70;;;;;;5072618;28;20470;-59
2022/02/28 04:38:33;;;;;;;24.27;9.57;;;-1.00;99.70;;;;;;5072650;28;20784;-60
2022/02/28 04:41:00;;;;;;;19.17;9.53;;;-1.10;99.70;;;;;;5072766;28;21025;-60
2022/02/28 04:43:26;;;;;;;30.80;9.80;;;-1.20;99.70;;;;;;5072646;28;21024;-61
2022/02/28 04:45:53;;;;;;;24.47;9.80;;;-1.20;99.70;;;;;;5072412;28;20467;-60
2022/02/28 04:48:21;;;;;;;21.83;8.87;;;-1.20;99.70;;;;;;5072410;28;20447;-58
2022/02/28 04:50:51;;;;;;;21.90;10.10;;;-1.20;99.70;;;;;;5072704;28;20889;-59
2022/02/28 04:53:18;;;;;;;22.53;10.00;;;-1.30;99.70;;;;;;5072462;28;20447;-61
2022/02/28 04:55:46;;;;;;;23.03;9.60;;;-1.30;99.70;;;;;;5072200;28;20475;-60
2022/02/28 04:58:12;;;;;;;24.50;9.40;;;-1.20;99.70;;;;;;5072131;28;20520;-56
2022/02/28 05:00:39;;;;;;;24.00;9.30;;;-1.00;99.70;;;;;;5072581;28;20439;-60
2022/02/28 05:03:06;;;;;;;22.83;9.60;;;-0.90;99.70;;;;;;5072256;28;20482;-62
2022/02/28 05:05:32;;;;;;;21.53;9.23;;;-1.00;99.70;;;;;;5071886;28;20459;-60
2022/02/28 05:07:59;;;;;;;23.83;9.40;;;-1.00;99.70;;;;;;5072030;28;21066;-60
2022/02/28 05:10:26;;;;;;;24.10;9.70;;;-0.90;99.70;;;;;;5072203;28;20451;-59
2022/02/28 05:12:54;;;;;;;25.97;9.30;;;-0.80;99.70;;;;;;5071612;28;20532;-62
2022/02/28 05:15:21;;;;;;;25.60;10.20;;;-0.80;99.70;;;;;;5071590;28;20481;-62
2022/02/28 05:17:47;;;;;;;25.40;9.83;;;-0.60;99.70;;;;;;5071864;28;20500;-64
2022/02/28 05:20:14;;;;;;;22.93;9.80;;;-0.70;99.70;;;;;;5072010;28;20438;-60
2022/02/28 05:22:41;;;;;;;24.80;9.83;;;-0.80;99.70;;;;;;5071887;28;20809;-58
2022/02/28 05:25:08;;;;;;;23.03;9.63;;;-0.90;99.70;;;;;;5071582;28;20994;-60
2022/02/28 05:27:38;;;;;;;20.47;8.87;;;-1.00;99.70;;;;;;5071892;28;21087;-60
2022/02/28 05:30:09;;;;;;;23.10;9.23;;;-1.10;99.70;;;;;;5071829;28;20507;-60
2022/02/28 05:32:37;;;;;;;23.83;9.70;;;-1.20;99.70;;;;;;5071746;28;20447;-62
2022/02/28 05:35:04;;;;;;;25.43;10.03;;;-1.20;99.70;;;;;;5070778;28;20498;-60
2022/02/28 05:37:31;;;;;;;23.43;10.30;;;-1.30;99.70;;;;;;5071591;28;20832;-61
2022/02/28 05:39:57;;;;;;;23.07;9.43;;;-1.30;99.70;;;;;;5071550;28;20435;-60
2022/02/28 05:42:24;;;;;;;23.90;10.17;;;-1.30;99.70;;;;;;5071523;28;20483;-61
2022/02/28 05:44:51;;;;;;;24.57;9.70;;;-1.30;99.70;;;;;;5071255;28;20463;-61
2022/02/28 05:47:19;;;;;;;19.97;8.70;;;-1.40;99.70;;;;;;5071491;28;20954;-60
2022/02/28 05:49:46;;;;;;;26.93;10.40;;;-1.40;99.70;;;;;;5071278;28;20466;-60
2022/02/28 05:52:12;;;;;;;21.23;9.50;;;-1.40;99.70;;;;;;5072885;28;20496;-61
2022/02/28 05:54:39;;;;;;;25.97;9.83;;;-1.40;99.70;;;;;;5071307;28;20839;-62
2022/02/28 05:57:06;;;;;;;26.00;10.27;;;-1.40;99.70;;;;;;5070950;28;20447;-57
2022/02/28 05:59:33;;;;;;;24.40;9.70;;;-1.40;99.70;;;;;;5071259;28;20481;-60
2022/02/28 06:02:00;;;;;;;23.47;9.73;;;-1.40;99.70;;;;;;5071260;28;20520;-60
2022/02/28 06:04:28;;;;;;;22.47;10.57;;;-1.40;99.70;;;;;;5071052;28;20486;-59
2022/02/28 06:06:55;;;;;;;26.27;11.10;;;-1.40;99.70;;;;;;5070916;28;20500;-61
2022/02/28 06:09:22;;;;;;;22.10;10.40;;;-1.40;99.70;;;;;;5071229;28;20512;-62
2022/02/28 06:11:49;;;;;;;29.27;11.40;;;-1.40;99.70;;;;;;5071188;28;20443;-58
2022/02/28 06:14:16;;;;;;;26.17;11.07;;;-1.40;99.70;;;;;;5070396;28;20543;-57
2022/02/28 06:16:42;;;;;;;27.93;11.57;;;-1.30;99.70;;;;;;5070917;28;20447;-62
2022/02/28 06:19:09;;;;;;;30.60;12.10;;;-1.30;99.70;;;;;;5070711;28;20450;-60
2022/02/28 06:21:37;;;;;;;28.77;12.17;;;-1.40;99.70;;;;;;5070957;28;20439;-60
2022/02/28 06:24:05;;;;;;;26.30;11.63;;;-1.30;99.70;;;;;;5070722;28;20836;-59
2022/02/28 06:26:32;;;;;;;26.30;11.00;;;-1.40;99.70;;;;;;5070608;28;20512;-60
2022/02/28 06:28:59;;;;;;;33.33;12.57;;;-1.50;99.70;;;;;;5070596;28;20447;-61
2022/02/28 06:31:25;;;;;;;31.03;12.23;;;-1.40;99.70;;;;;;5070527;28;20443;-60
2022/02/28 06:33:52;;;;;;;29.03;12.07;;;-1.40;99.70;;;;;;5069969;28;20446;-61
2022/02/28 06:36:19;;;;;;;27.63;10.53;;;-1.40;99.70;;;;;;5070596;28;20534;-58
2022/02/28 06:38:47;;;;;;;27.17;10.90;;;-1.40;99.70;;;;;;5070411;28;20476;-62
2022/02/28 06:41:13;;;;;;;26.77;10.53;;;-1.40;99.70;;;;;;5070640;28;20831;-62
2022/02/28 06:43:40;;;;;;;24.30;10.77;;;-1.40;99.70;;;;;;5070694;28;20486;-59
2022/02/28 06:46:07;;;;;;;34.77;11.00;;;-1.40;99.70;;;;;;5070309;28;20462;-57
2022/02/28 06:48:34;;;;;;;26.83;10.60;;;-1.30;99.70;;;;;;5070486;28;20491;-59
2022/02/28 06:51:01;;;;;;;30.30;12.37;;;-1.30;99.70;;;;;;5070572;28;20443;-58
2022/02/28 06:53:27;;;;;;;29.83;12.63;;;-1.30;99.70;;;;;;5070631;28;20441;-57
2022/02/28 06:55:56;;;;;;;30.30;12.27;;;-1.20;99.70;;;;;;5070208;28;20466;-56
2022/02/28 06:58:23;;;;;;;35.73;13.73;;;-1.20;99.70;;;;;;5068722;28;20457;-62
2022/02/28 07:00:51;;;;;;;30.60;13.60;;;-1.10;99.70;;;;;;5054662;28;20475;-63
2022/02/28 07:03:17;;;;;;;33.10;11.30;;;-1.10;99.70;;;;;;5070359;28;20506;-60
2022/02/28 07:05:47;;;;;;;34.30;13.20;;;-1.10;99.70;;;;;;5062760;28;20459;-60
2022/02/28 07:08:15;;;;;;;33.50;14.43;;;-1.00;99.70;;;;;;5050503;28;20444;-59
2022/02/28 07:10:43;;;;;;;30.40;13.50;;;-0.90;99.70;;;;;;5056713;28;20442;-60
2022/02/28 07:13:11;;;;;;;31.30;12.90;;;-1.00;99.70;;;;;;5066313;28;20458;-60
2022/02/28 07:15:40;;;;;;;34.77;12.23;;;-1.00;99.70;;;;;;5069450;28;20482;-61
2022/02/28 07:18:07;;;;;;;27.83;11.57;;;-0.90;99.70;;;;;;5069567;28;20443;-59
2022/02/28 07:20:34;;;;;;;31.50;12.17;;;-0.90;99.70;;;;;;5070342;28;20447;-57
2022/02/28 07:23:01;;;;;;;28.70;11.63;;;-0.80;99.70;;;;;;5070188;28;20493;-57
2022/02/28 07:25:28;;;;;;;26.17;10.40;;;-0.80;99.70;;;;;;5069999;28;20492;-56
2022/02/28 07:27:55;;;;;;;25.40;10.50;;;-0.70;99.70;;;;;;5070156;28;20439;-62
2022/02/28 07:30:23;;;;;;;28.10;11.20;;;-0.70;99.70;;;;;;5069960;28;20438;-57
2022/02/28 07:32:50;;;;;;;28.67;11.37;;;-0.60;99.70;;;;;;5069698;28;20445;-59
2022/02/28 07:35:16;;;;;;;24.20;10.87;;;-0.60;99.70;;;;;;5068803;28;20473;-58
2022/02/28 07:37:43;;;;;;;25.23;10.97;;;-0.50;99.70;;;;;;5070102;28;20451;-58
2022/02/28 07:40:11;;;;;;;24.27;10.50;;;-0.50;99.70;;;;;;5069749;28;20447;-61
2022/02/28 07:42:39;;;;;;;26.10;11.33;;;-0.40;99.70;;;;;;5069344;28;20447;-60
2022/02/28 07:45:07;;;;;;;32.37;11.77;;;-0.40;99.70;;;;;;5072272;28;21287;-59
2022/02/28 07:47:35;;;;;;;29.57;11.93;;;-0.40;99.70;;;;;;5071880;28;20442;-60
2022/02/28 07:50:02;;;;;;;29.00;12.70;;;-0.30;99.70;;;;;;5072934;28;20446;-59
2022/02/28 07:52:29;;;;;;;34.90;12.70;;;-0.20;99.70;;;;;;5073373;28;20443;-59
2022/02/28 07:54:56;;;;;;;32.30;12.40;;;-0.10;99.70;;;;;;5072921;28;20552;-62
2022/02/28 07:57:22;;;;;;;60.93;18.97;;;0.30;99.70;;;;;;5073304;28;20442;-59
2022/02/28 07:59:49;;;;;;;32.77;12.90;;;0.60;99.70;;;;;;5073423;28;20434;-57
2022/02/28 08:02:16;;;;;;;38.50;15.27;;;0.80;99.70;;;;;;5073777;28;20996;-60
2022/02/28 08:04:44;;;;;;;32.47;12.93;;;1.10;99.70;;;;;;5073662;28;20552;-59
2022/02/28 08:07:11;;;;;;;26.53;11.03;;;1.30;99.70;;;;;;5073591;28;20442;-58
2022/02/28 08:09:37;;;;;;;29.50;11.30;;;1.50;99.70;;;;;;5073565;28;20439;-61
2022/02/28 08:12:05;;;;;;;27.27;11.63;;;1.60;99.70;;;;;;5073584;28;20452;-61
2022/02/28 08:14:31;;;;;;;31.63;11.97;;;1.90;99.70;;;;;;5073378;28;20443;-63
2022/02/28 08:16:58;;;;;;;30.60;11.70;;;2.00;99.70;;;;;;5073280;28;20537;-61
2022/02/28 08:19:25;;;;;;;28.60;12.10;;;2.40;99.70;;;;;;5063900;28;20525;-60
2022/02/28 08:21:53;;;;;;;23.60;10.90;;;2.80;99.70;;;;;;5072213;28;20451;-61
2022/02/28 08:24:20;;;;;;;24.77;11.17;;;3.30;99.70;;;;;;5069153;28;20916;-59
2022/02/28 08:26:47;;;;;;;26.37;12.67;;;4.20;99.70;;;;;;5071921;28;20481;-57
2022/02/28 08:29:13;;;;;;;27.80;12.17;;;4.70;99.70;;;;;;5072397;28;20450;-60
2022/02/28 08:31:40;;;;;;;31.20;12.17;;;5.20;99.70;;;;;;5072598;28;20517;-59
2022/02/28 08:34:08;;;;;;;32.33;13.87;;;6.00;99.70;;;;;;5067547;28;20463;-55
